Time;durP1;ratioP1;P1;durP2;ratioP2;P2;SDS_P1;SDS_P2;PMS_P1;PMS_P2;Temp;Humidity;BMP_temperature;BMP_pressure;BME280_temperature;BME280_humidity;BME280_pressure;Samples;Min_cycle;Max_cycle;Signal;HPM_P1;HPM_P2
2022/09/14 00:02:12;;;;;;;2.37;2.17;;;;;;;19.32;90.53;97238.56;5119520;28;20226;-64
2022/09/14 00:04:40;;;;;;;2.60;2.30;;;;;;;19.31;90.79;97232.34;5117651;28;20314;-64
2022/09/14 00:07:08;;;;;;;2.27;2.07;;;;;;;19.32;90.87;97238.56;5119493;28;20226;-64
2022/09/14 00:09:34;;;;;;;2.30;2.10;;;;;;;19.30;91.46;97236.03;5119435;28;20365;-64
2022/09/14 00:12:03;;;;;;;2.40;2.20;;;;;;;19.33;90.75;97235.66;5119251;28;20256;-64
2022/09/14 00:14:29;;;;;;;2.97;2.17;;;;;;;19.39;89.37;97232.25;5117352;28;20302;-64
2022/09/14 00:16:56;;;;;;;3.83;2.63;;;;;;;19.46;87.98;97235.91;5112310;28;20245;-64
2022/09/14 00:19:25;;;;;;;3.43;2.77;;;;;;;19.53;87.35;97239.50;5119191;28;20253;-64
2022/09/14 00:21:53;;;;;;;3.87;2.73;;;;;;;19.56;87.68;97241.81;5117633;28;20227;-64
2022/09/14 00:24:21;;;;;;;3.93;2.90;;;;;;;19.60;87.65;97243.13;5115951;28;20233;-64
2022/09/14 00:26:48;;;;;;;3.40;2.90;;;;;;;19.63;87.61;97234.69;5117248;28;20642;-64
2022/09/14 00:29:16;;;;;;;4.80;3.20;;;;;;;19.69;87.65;97220.56;5119025;28;20265;-64
2022/09/14 00:31:44;;;;;;;4.20;2.70;;;;;;;19.70;87.10;97210.69;5119155;28;20314;-64
2022/09/14 00:34:14;;;;;;;4.17;3.00;;;;;;;19.68;86.72;97202.81;5117048;28;20261;-64
2022/09/14 00:36:45;;;;;;;4.43;2.93;;;;;;;19.70;86.51;97199.97;5118873;28;20281;-64
2022/09/14 00:39:12;;;;;;;3.93;2.80;;;;;;;19.72;85.91;97197.91;5118892;28;20639;-64
2022/09/14 00:41:42;;;;;;;3.50;2.90;;;;;;;19.73;85.79;97195.06;5118901;28;20249;-64
2022/09/14 00:44:42;;;;;;;4.80;3.03;;;;;;;19.76;85.51;97188.50;5116955;28;20666;-64
2022/09/14 00:47:13;;;;;;;4.47;3.03;;;;;;;19.78;85.84;97189.97;5118580;28;20704;-64
2022/09/14 00:49:42;;;;;;;3.40;2.77;;;;;;;19.81;86.11;97192.28;5118204;28;20226;-64
2022/09/14 00:52:12;;;;;;;2.53;2.33;;;;;;;19.82;85.68;97183.19;5116169;28;20274;-64
2022/09/14 00:54:42;;;;;;;3.53;2.87;;;;;;;19.84;86.16;97180.34;5118521;28;20627;-63
2022/09/14 00:57:09;;;;;;;3.00;2.70;;;;;;;19.85;85.76;97176.63;5118266;28;20731;-63
2022/09/14 00:59:38;;;;;;;4.30;2.90;;;;;;;19.84;86.36;97175.81;5116998;28;20258;-63
2022/09/14 01:02:07;;;;;;;2.87;2.60;;;;;;;19.82;86.97;97167.13;5118302;28;20218;-63
2022/09/14 01:04:36;;;;;;;2.73;2.53;;;;;;;19.81;87.65;97170.00;5118350;28;20233;-62
2022/09/14 01:07:09;;;;;;;4.50;2.97;;;;;;;19.84;87.80;97170.47;5118209;28;20226;-63
2022/09/14 01:09:44;;;;;;;3.30;3.00;;;;;;;19.89;84.57;97146.59;5115715;28;20226;-62
2022/09/14 01:12:29;;;;;;;4.37;3.10;;;;;;;19.93;82.97;97133.66;5118177;28;20248;-63
2022/09/14 01:15:03;;;;;;;3.53;2.80;;;;;;;19.86;84.40;97138.91;5118216;28;20233;-63
2022/09/14 01:17:37;;;;;;;3.03;2.73;;;;;;;19.72;87.28;97129.06;5114403;28;20682;-63
2022/09/14 01:20:16;;;;;;;2.67;2.47;;;;;;;19.52;89.52;97121.75;5118127;28;20308;-63
2022/09/14 01:22:46;;;;;;;3.97;2.73;;;;;;;19.28;90.81;97114.84;5109511;28;20348;-63
2022/09/14 01:25:28;;;;;;;2.50;2.23;;;;;;;18.95;92.73;97134.88;5114095;28;20273;-63
2022/09/14 01:28:03;;;;;;;2.57;2.37;;;;;;;18.78;95.13;97156.63;5092832;28;20222;-62
2022/09/14 01:30:33;;;;;;;2.67;2.47;;;;;;;18.69;98.52;97176.44;5116466;28;20290;-63
2022/09/14 01:33:06;;;;;;;2.80;2.50;;;;;;;18.66;100.00;97247.22;5113983;28;20302;-62
2022/09/14 01:35:38;;;;;;;3.20;2.90;;;;;;;18.58;100.00;97244.59;5088882;28;20310;-62
2022/09/14 01:38:10;;;;;;;3.97;3.20;;;;;;;18.51;100.00;97248.16;5117690;28;20277;-62
2022/09/14 01:40:40;;;;;;;6.97;4.23;;;;;;;18.37;100.00;97240.88;5117794;28;20276;-63
2022/09/14 01:43:14;;;;;;;10.87;5.07;;;;;;;18.33;100.00;97232.38;5113887;28;20628;-64
2022/09/14 01:45:46;;;;;;;7.63;4.80;;;;;;;18.16;100.00;97227.25;5117830;28;20253;-64
2022/09/14 01:48:16;;;;;;;10.80;4.93;;;;;;;18.07;100.00;97223.78;5117547;28;20218;-65
2022/09/14 01:50:46;;;;;;;11.37;4.93;;;;;;;17.97;100.00;97217.81;5116327;28;20523;-69
2022/09/14 01:53:17;;;;;;;8.83;5.07;;;;;;;17.94;100.00;97212.81;5117076;28;20739;-71
2022/09/14 01:55:48;;;;;;;7.53;4.60;;;;;;;17.97;100.00;97216.97;5117362;28;20622;-71
2022/09/14 01:58:24;;;;;;;7.00;3.43;;;;;;;18.03;100.00;97206.41;5117305;28;20245;-67
2022/09/14 02:00:55;;;;;;;7.67;3.70;;;;;;;18.05;100.00;97212.41;5115528;28;20275;-69
2022/09/14 02:03:25;;;;;;;5.13;3.13;;;;;;;18.04;100.00;97223.31;5117295;28;20282;-67
2022/09/14 02:05:57;;;;;;;3.97;3.37;;;;;;;18.01;100.00;97235.19;5117227;28;20265;-64
2022/09/14 02:08:26;;;;;;;6.50;3.93;;;;;;;18.00;100.00;97244.22;5116510;28;20324;-64
2022/09/14 02:10:53;;;;;;;7.87;3.90;;;;;;;17.94;100.00;97234.22;5115116;28;20229;-64
2022/09/14 02:13:21;;;;;;;4.63;3.77;;;;;;;17.95;100.00;97240.38;5117254;28;20265;-67
2022/09/14 02:15:48;;;;;;;5.43;4.20;;;;;;;17.96;100.00;97242.88;5117262;28;20226;-65
2022/09/14 02:18:14;;;;;;;5.87;3.53;;;;;;;17.99;100.00;97242.53;5115920;28;20277;-65
2022/09/14 02:20:47;;;;;;;5.87;3.83;;;;;;;18.01;100.00;97240.53;5115639;28;20261;-67
2022/09/14 02:23:14;;;;;;;4.33;3.70;;;;;;;17.97;100.00;97233.84;5113874;28;20222;-67
2022/09/14 02:25:41;;;;;;;6.53;4.00;;;;;;;17.90;100.00;97238.22;5116848;28;20279;-67
2022/09/14 02:28:08;;;;;;;6.07;4.07;;;;;;;17.87;100.00;97227.06;5115474;28;20253;-68
2022/09/14 02:30:46;;;;;;;5.43;3.60;;;;;;;17.85;100.00;97219.19;5116803;28;20226;-71
2022/09/14 02:33:20;;;;;;;7.57;4.37;;;;;;;17.80;100.00;97216.19;5116830;28;20281;-72
2022/09/14 02:35:51;;;;;;;4.83;3.73;;;;;;;17.75;100.00;97201.69;5114895;28;20620;-70
2022/09/14 02:38:28;;;;;;;7.03;4.07;;;;;;;17.76;100.00;97214.91;5114241;28;20243;-68
2022/09/14 02:40:59;;;;;;;5.10;4.37;;;;;;;17.82;100.00;97208.03;5116597;28;20309;-66
2022/09/14 02:43:33;;;;;;;4.90;3.63;;;;;;;17.86;100.00;97212.84;5116518;28;20265;-65
2022/09/14 02:46:12;;;;;;;3.83;3.50;;;;;;;17.86;100.00;97215.50;5111720;28;20226;-67
2022/09/14 02:48:45;;;;;;;4.70;3.50;;;;;;;17.90;100.00;97226.69;5116330;28;20261;-66
2022/09/14 02:51:21;;;;;;;5.03;3.80;;;;;;;17.90;100.00;97222.19;5116235;28;20218;-66
2022/09/14 02:53:53;;;;;;;4.80;3.90;;;;;;;17.92;100.00;97219.34;5114439;28;20536;-65
2022/09/14 02:56:21;;;;;;;4.20;3.80;;;;;;;17.89;100.00;97220.53;5116229;28;20261;-66
2022/09/14 02:58:48;;;;;;;5.07;3.73;;;;;;;17.88;100.00;97212.66;5116162;28;20245;-66
2022/09/14 03:01:19;;;;;;;6.17;4.40;;;;;;;17.85;100.00;97197.81;5114357;28;20698;-68
2022/09/14 03:03:45;;;;;;;5.50;3.77;;;;;;;17.86;100.00;97196.81;5114222;28;20226;-67
2022/09/14 03:06:12;;;;;;;5.10;3.73;;;;;;;17.84;100.00;97192.63;5116025;28;20229;-66
2022/09/14 03:08:40;;;;;;;5.10;3.93;;;;;;;17.86;100.00;97188.78;5116043;28;20222;-66
2022/09/14 03:11:07;;;;;;;5.83;4.27;;;;;;;17.88;100.00;97183.28;5116160;28;21593;-67
2022/09/14 03:13:34;;;;;;;4.43;4.03;;;;;;;17.86;100.00;97183.44;5114006;28;20277;-67
2022/09/14 03:16:05;;;;;;;4.73;4.13;;;;;;;17.83;100.00;97173.09;5116076;28;20232;-67
2022/09/14 03:18:33;;;;;;;4.33;3.80;;;;;;;17.83;100.00;97166.91;5115850;28;20245;-65
2022/09/14 03:21:04;;;;;;;4.87;4.03;;;;;;;17.84;100.00;97169.41;5115929;28;20222;-67
2022/09/14 03:23:34;;;;;;;4.00;3.63;;;;;;;17.81;100.00;97169.75;5102126;28;20222;-67
2022/09/14 03:26:01;;;;;;;5.77;4.00;;;;;;;17.80;100.00;97154.72;5115890;28;20247;-66
2022/09/14 03:28:28;;;;;;;5.10;4.30;;;;;;;17.79;100.00;97163.75;5113908;28;20244;-67
2022/09/14 03:30:54;;;;;;;6.33;4.40;;;;;;;17.76;100.00;97161.44;5115381;28;20298;-66
2022/09/14 03:33:21;;;;;;;4.80;4.17;;;;;;;17.77;100.00;97167.59;5114116;28;20229;-67
2022/09/14 03:35:49;;;;;;;7.20;4.60;;;;;;;17.77;100.00;97141.72;5115832;28;20226;-66
2022/09/14 03:38:16;;;;;;;6.10;4.67;;;;;;;17.75;100.00;97157.09;5115692;28;20299;-67
2022/09/14 03:40:42;;;;;;;6.10;4.30;;;;;;;17.73;100.00;97156.44;5115848;28;20267;-67
2022/09/14 03:43:11;;;;;;;4.77;3.93;;;;;;;17.71;100.00;97155.78;5112437;28;20268;-67
2022/09/14 03:45:37;;;;;;;5.13;4.63;;;;;;;17.73;100.00;97148.41;5115638;28;20229;-67
2022/09/14 03:48:04;;;;;;;5.17;4.23;;;;;;;17.76;100.00;97144.56;5115519;28;20577;-67
2022/09/14 03:50:31;;;;;;;4.97;4.37;;;;;;;17.78;100.00;97142.53;5115466;28;20268;-66
2022/09/14 03:52:59;;;;;;;4.63;4.23;;;;;;;17.83;100.00;97137.50;5110914;28;20242;-66
2022/09/14 03:55:27;;;;;;;4.83;3.97;;;;;;;17.86;100.00;97132.66;5115449;28;20569;-67
2022/09/14 03:57:54;;;;;;;6.73;4.37;;;;;;;17.89;100.00;97137.66;5115647;28;20333;-66
2022/09/14 04:00:21;;;;;;;4.30;3.90;;;;;;;17.90;100.00;97136.66;5114612;28;20269;-67
2022/09/14 04:02:47;;;;;;;4.47;4.07;;;;;;;17.92;100.00;97131.13;5113485;28;20230;-66
2022/09/14 04:05:14;;;;;;;6.30;4.70;;;;;;;17.87;100.00;97126.28;5115439;28;20257;-66
2022/09/14 04:07:41;;;;;;;5.03;4.30;;;;;;;17.88;100.00;97124.47;5115434;28;20283;-65
2022/09/14 04:10:09;;;;;;;5.03;4.17;;;;;;;17.88;100.00;97114.63;5115351;28;20643;-66
2022/09/14 04:12:37;;;;;;;5.17;4.60;;;;;;;17.88;100.00;97101.25;5113469;28;20254;-65
2022/09/14 04:15:05;;;;;;;4.83;4.33;;;;;;;17.85;100.00;97098.09;5115509;28;20230;-65
2022/09/14 04:17:32;;;;;;;7.77;5.00;;;;;;;17.81;100.00;97096.78;5115184;28;20254;-65
2022/09/14 04:19:58;;;;;;;6.20;5.47;;;;;;;17.77;100.00;97098.13;5113522;28;20244;-65
2022/09/14 04:22:25;;;;;;;5.97;5.27;;;;;;;17.73;100.00;97094.97;5110725;28;20223;-65
2022/09/14 04:24:53;;;;;;;6.33;5.40;;;;;;;17.67;100.00;97090.31;5115187;28;20273;-66
2022/09/14 04:27:21;;;;;;;6.20;5.20;;;;;;;17.64;100.00;97092.50;5115057;28;20580;-66
2022/09/14 04:29:49;;;;;;;8.27;5.17;;;;;;;17.66;100.00;97093.16;5115133;28;20265;-64
2022/09/14 04:32:16;;;;;;;6.20;5.43;;;;;;;17.72;100.00;97085.28;5113260;28;20305;-66
2022/09/14 04:34:43;;;;;;;7.27;5.20;;;;;;;17.73;100.00;97086.94;5115028;28;20287;-66
2022/09/14 04:37:09;;;;;;;5.50;4.90;;;;;;;17.75;100.00;97092.94;5114977;28;20638;-65
2022/09/14 04:39:36;;;;;;;7.07;5.50;;;;;;;17.82;100.00;97085.91;5115046;28;20265;-65
2022/09/14 04:42:03;;;;;;;6.47;5.33;;;;;;;17.87;100.00;97086.19;5113093;28;20646;-65
2022/09/14 04:44:31;;;;;;;5.47;4.67;;;;;;;17.89;100.00;97086.03;5117145;28;20274;-65
2022/09/14 04:46:57;;;;;;;6.03;4.80;;;;;;;17.88;100.00;97087.88;5117133;28;20222;-65
2022/09/14 04:49:24;;;;;;;6.90;5.67;;;;;;;17.93;100.00;97098.03;5118825;28;20310;-65
2022/09/14 04:51:51;;;;;;;8.53;5.30;;;;;;;17.99;100.00;97097.34;5116774;28;20320;-65
2022/09/14 04:54:18;;;;;;;6.37;5.60;;;;;;;18.04;100.00;97090.44;5118714;28;20578;-67
2022/09/14 04:56:45;;;;;;;6.90;5.50;;;;;;;18.11;100.00;97096.72;5118735;28;20255;-67
2022/09/14 04:59:14;;;;;;;6.50;5.47;;;;;;;18.16;100.00;97088.19;5118605;28;20281;-65
2022/09/14 05:01:44;;;;;;;7.13;6.17;;;;;;;18.22;100.00;97093.66;5116895;28;20558;-67
2022/09/14 05:04:11;;;;;;;6.77;6.10;;;;;;;18.22;100.00;97096.31;5118544;28;20527;-64
2022/09/14 05:06:39;;;;;;;7.17;6.37;;;;;;;18.24;100.00;97096.97;5118404;28;20624;-65
2022/09/14 05:09:08;;;;;;;10.63;7.77;;;;;;;18.25;100.00;97104.00;5118386;28;20218;-65
2022/09/14 05:11:36;;;;;;;6.90;6.30;;;;;;;18.27;100.00;97110.00;5114772;28;20222;-65
2022/09/14 05:14:04;;;;;;;11.03;8.03;;;;;;;18.30;100.00;97144.41;5118461;28;20230;-65
2022/09/14 05:16:32;;;;;;;10.57;9.07;;;;;;;18.28;100.00;97159.81;5118245;28;20261;-65
2022/09/14 05:19:02;;;;;;;8.10;7.30;;;;;;;18.24;100.00;97122.91;5118111;28;20242;-65
2022/09/14 05:21:30;;;;;;;13.20;8.67;;;;;;;18.21;100.00;97152.66;5114665;28;20543;-66
2022/09/14 05:23:58;;;;;;;7.77;6.93;;;;;;;18.25;100.00;97149.47;5107411;28;20221;-65
2022/09/14 05:26:27;;;;;;;10.03;6.90;;;;;;;18.21;100.00;97147.31;5118024;28;20318;-65
2022/09/14 05:28:56;;;;;;;8.10;6.90;;;;;;;18.24;100.00;97144.31;5117805;28;20278;-65
2022/09/14 05:31:23;;;;;;;8.07;6.73;;;;;;;18.19;100.00;97147.50;5116700;28;20230;-65
2022/09/14 05:33:51;;;;;;;6.70;6.00;;;;;;;18.20;100.00;97138.47;5117834;28;20619;-65
2022/09/14 05:36:19;;;;;;;8.83;6.97;;;;;;;18.25;100.00;97149.47;5117854;28;20268;-65
2022/09/14 05:38:46;;;;;;;6.57;5.57;;;;;;;18.29;100.00;97148.09;5115771;28;20284;-65
2022/09/14 05:41:15;;;;;;;6.10;5.47;;;;;;;18.38;100.00;97138.22;5116825;28;20218;-65
2022/09/14 05:43:42;;;;;;;6.13;5.53;;;;;;;18.45;100.00;97137.31;5117667;28;20262;-65
2022/09/14 05:46:11;;;;;;;7.47;6.67;;;;;;;18.54;100.00;97138.09;5117609;28;20283;-65
2022/09/14 05:48:39;;;;;;;7.60;6.90;;;;;;;18.61;100.00;97142.56;5117025;28;20295;-65
2022/09/14 05:51:07;;;;;;;5.80;5.30;;;;;;;18.67;100.00;97136.50;5116640;28;20631;-65
2022/09/14 05:53:36;;;;;;;5.90;5.40;;;;;;;18.72;100.00;97139.44;5117626;28;20269;-65
2022/09/14 05:56:04;;;;;;;5.40;4.87;;;;;;;18.73;100.00;97130.41;5117165;28;20257;-66
2022/09/14 05:58:31;;;;;;;5.33;4.83;;;;;;;18.72;100.00;97128.72;5115905;28;20675;-65
2022/09/14 06:00:58;;;;;;;5.30;4.80;;;;;;;18.69;100.00;97126.44;5116916;28;20572;-65
2022/09/14 06:03:25;;;;;;;7.43;5.67;;;;;;;18.65;100.00;97121.63;5115520;28;20799;-65
2022/09/14 06:05:53;;;;;;;6.80;5.60;;;;;;;18.62;100.00;97122.81;5117309;28;20225;-65
2022/09/14 06:08:21;;;;;;;5.93;5.30;;;;;;;18.61;100.00;97109.59;5116205;28;20229;-65
2022/09/14 06:10:49;;;;;;;6.53;5.60;;;;;;;18.59;100.00;97112.44;5115423;28;20226;-65
2022/09/14 06:13:16;;;;;;;5.93;5.10;;;;;;;18.62;100.00;97117.47;5114347;28;20229;-65
2022/09/14 06:15:42;;;;;;;6.50;5.90;;;;;;;18.68;100.00;97114.06;5108420;28;20253;-65
2022/09/14 06:18:09;;;;;;;6.17;5.60;;;;;;;18.72;100.00;97126.06;5114860;28;20274;-64
2022/09/14 06:20:36;;;;;;;6.73;5.50;;;;;;;18.84;100.00;97129.97;5114849;28;20619;-66
2022/09/14 06:23:02;;;;;;;5.73;5.23;;;;;;;18.95;100.00;97134.88;5113579;28;20283;-67
2022/09/14 06:25:29;;;;;;;6.03;5.43;;;;;;;19.06;100.00;97142.47;5115322;28;20265;-65
2022/09/14 06:27:57;;;;;;;7.07;5.57;;;;;;;19.13;100.00;97138.06;5114985;28;20530;-63
2022/09/14 06:30:25;;;;;;;5.20;4.70;;;;;;;19.18;100.00;97130.31;5111197;28;20229;-64
2022/09/14 06:32:51;;;;;;;6.63;5.27;;;;;;;19.26;100.00;97138.28;5103523;28;20357;-64
2022/09/14 06:35:18;;;;;;;7.53;5.70;;;;;;;19.31;100.00;97125.19;5115364;28;20225;-64
2022/09/14 06:37:45;;;;;;;7.37;6.30;;;;;;;19.38;100.00;97128.78;5114860;28;20248;-63
2022/09/14 06:40:11;;;;;;;6.50;5.90;;;;;;;19.41;100.00;97131.09;5113766;28;20227;-65
2022/09/14 06:42:38;;;;;;;7.03;5.63;;;;;;;19.43;100.00;97129.06;5115260;28;20264;-63
2022/09/14 06:45:07;;;;;;;6.30;5.70;;;;;;;19.43;100.00;97122.84;5115261;28;20609;-63
2022/09/14 06:47:34;;;;;;;7.03;6.10;;;;;;;19.49;100.00;97122.13;5114837;28;20224;-64
2022/09/14 06:50:01;;;;;;;6.70;6.10;;;;;;;19.54;100.00;97120.56;5113649;28;20671;-63
2022/09/14 06:52:27;;;;;;;8.00;6.57;;;;;;;19.56;100.00;97123.88;5115116;28;20293;-63
2022/09/14 06:54:54;;;;;;;6.33;5.17;;;;;;;19.60;100.00;97119.81;5114926;28;20667;-63
2022/09/14 06:57:21;;;;;;;6.13;5.53;;;;;;;19.65;100.00;97112.06;5113205;28;20261;-64
2022/09/14 06:59:47;;;;;;;5.90;5.30;;;;;;;19.71;100.00;97116.66;5112828;28;20717;-63
2022/09/14 07:02:15;;;;;;;6.53;5.80;;;;;;;19.78;100.00;97112.22;5114857;28;20265;-63
2022/09/14 07:04:42;;;;;;;6.10;5.50;;;;;;;19.86;100.00;97109.41;5114832;28;20265;-63
2022/09/14 07:07:08;;;;;;;5.90;5.23;;;;;;;19.93;100.00;97110.31;5114110;28;20234;-63
2022/09/14 07:09:36;;;;;;;10.80;6.23;;;;;;;20.02;100.00;97108.38;5112771;28;20258;-65
2022/09/14 07:12:03;;;;;;;6.63;5.90;;;;;;;20.12;100.00;97104.38;5114699;28;20666;-64
2022/09/14 07:14:30;;;;;;;5.83;5.23;;;;;;;20.30;100.00;97110.16;5114445;28;20264;-65
2022/09/14 07:16:56;;;;;;;5.27;4.87;;;;;;;20.50;100.00;97108.50;5113608;28;20226;-65
2022/09/14 07:19:24;;;;;;;7.20;6.43;;;;;;;20.69;100.00;97118.59;5110117;28;20285;-63
2022/09/14 07:21:53;;;;;;;6.60;5.20;;;;;;;20.88;100.00;97131.41;5112711;28;20265;-64
2022/09/14 07:24:20;;;;;;;5.30;4.80;;;;;;;21.04;100.00;97133.78;5103195;28;20222;-63
2022/09/14 07:26:46;;;;;;;4.80;4.40;;;;;;;21.18;100.00;97146.31;5114433;28;20253;-63
2022/09/14 07:29:15;;;;;;;5.50;4.13;;;;;;;21.27;100.00;97139.75;5112749;28;20230;-63
2022/09/14 07:31:44;;;;;;;6.97;4.40;;;;;;;21.35;100.00;97136.94;5114343;28;20260;-64
2022/09/14 07:34:11;;;;;;;5.20;4.40;;;;;;;21.32;100.00;97136.47;5114388;28;20314;-64
2022/09/14 07:36:40;;;;;;;5.07;3.90;;;;;;;21.33;100.00;97130.09;5114141;28;20257;-64
2022/09/14 07:39:08;;;;;;;5.37;3.70;;;;;;;21.43;100.00;97136.78;5112150;28;20282;-63
2022/09/14 07:41:35;;;;;;;4.80;4.30;;;;;;;21.48;100.00;97139.69;5114198;28;20264;-64
2022/09/14 07:44:04;;;;;;;5.13;4.13;;;;;;;21.61;100.00;97137.09;5114129;28;20294;-64
2022/09/14 07:46:33;;;;;;;3.90;3.50;;;;;;;21.73;100.00;97140.06;5102654;28;20340;-62
2022/09/14 07:49:01;;;;;;;5.03;4.43;;;;;;;21.84;100.00;97145.72;5110809;28;20585;-62
2022/09/14 07:51:28;;;;;;;3.90;3.60;;;;;;;21.96;100.00;97141.44;5112116;28;20311;-63
2022/09/14 07:53:57;;;;;;;4.10;3.40;;;;;;;22.06;100.00;97146.44;5113976;28;20470;-63
2022/09/14 07:56:24;;;;;;;3.97;3.33;;;;;;;22.20;100.00;97137.38;5113863;28;20295;-62
2022/09/14 07:58:53;;;;;;;6.57;3.70;;;;;;;22.22;100.00;97151.47;5112602;28;20253;-63
2022/09/14 08:01:20;;;;;;;4.93;3.80;;;;;;;22.17;100.00;97148.53;5114037;28;20249;-62
2022/09/14 08:03:47;;;;;;;4.70;3.80;;;;;;;22.04;100.00;97149.34;5113989;28;20308;-62
2022/09/14 08:06:16;;;;;;;4.33;3.97;;;;;;;22.04;100.00;97149.34;5113715;28;20282;-64
2022/09/14 08:08:44;;;;;;;3.90;3.40;;;;;;;22.22;100.00;97149.59;5112514;28;20596;-63
2022/09/14 08:11:14;;;;;;;4.80;3.30;;;;;;;22.37;100.00;97158.34;5113865;28;20271;-63
2022/09/14 08:13:43;;;;;;;4.63;3.23;;;;;;;22.49;100.00;97167.53;5113975;28;20257;-63
2022/09/14 08:16:10;;;;;;;4.43;3.20;;;;;;;22.41;100.00;97173.06;5111043;28;20670;-64
2022/09/14 08:18:38;;;;;;;3.43;3.10;;;;;;;22.51;100.00;97175.41;5113923;28;20646;-64
2022/09/14 08:21:05;;;;;;;3.37;3.07;;;;;;;22.64;100.00;97184.34;5117975;28;20268;-64
2022/09/14 08:23:32;;;;;;;4.10;3.17;;;;;;;22.71;100.00;97178.97;5116213;28;20303;-63
2022/09/14 08:26:03;;;;;;;3.63;2.90;;;;;;;22.71;100.00;97179.81;5116871;28;20325;-63
2022/09/14 08:28:31;;;;;;;4.30;3.10;;;;;;;22.66;100.00;97181.44;5117440;28;20559;-63
2022/09/14 08:31:03;;;;;;;4.23;3.00;;;;;;;22.60;100.00;97193.03;5117646;28;20260;-63
2022/09/14 08:33:31;;;;;;;4.27;2.83;;;;;;;22.72;100.00;97197.63;5117167;28;20266;-63
2022/09/14 08:35:57;;;;;;;4.03;3.10;;;;;;;22.72;100.00;97197.63;5114532;28;20607;-64
2022/09/14 08:38:25;;;;;;;4.07;2.87;;;;;;;22.88;100.00;97197.25;5116257;28;20647;-62
2022/09/14 08:40:51;;;;;;;3.33;3.03;;;;;;;23.01;100.00;97188.34;5116323;28;20257;-63
2022/09/14 08:43:21;;;;;;;3.33;2.90;;;;;;;23.06;100.00;97192.09;5114616;28;20253;-63
2022/09/14 08:45:50;;;;;;;3.13;2.83;;;;;;;23.06;100.00;97194.78;5114443;28;20274;-63
2022/09/14 08:48:23;;;;;;;3.00;2.70;;;;;;;23.20;100.00;97212.66;5116371;28;20603;-63
2022/09/14 08:50:52;;;;;;;3.87;2.60;;;;;;;23.25;100.00;97223.66;5117464;28;20222;-65
2022/09/14 08:53:20;;;;;;;3.80;3.00;;;;;;;23.47;100.00;97235.88;5117547;28;20238;-62
2022/09/14 08:55:51;;;;;;;6.10;3.17;;;;;;;23.65;100.00;97244.19;5115376;28;20477;-64
2022/09/14 08:58:27;;;;;;;5.90;3.23;;;;;;;23.56;98.32;97245.44;5117253;28;20260;-63
2022/09/14 09:01:02;;;;;;;3.97;2.90;;;;;;;23.54;97.67;97242.09;5110671;28;20262;-62
2022/09/14 09:03:47;;;;;;;3.97;3.10;;;;;;;23.69;98.45;97237.34;5113415;28;20314;-62
2022/09/14 09:06:18;;;;;;;3.50;3.13;;;;;;;23.77;96.81;97210.13;5117068;28;20257;-63
2022/09/14 09:08:56;;;;;;;5.23;3.10;;;;;;;23.88;96.91;97204.13;5117207;28;20286;-63
2022/09/14 09:11:26;;;;;;;4.97;3.53;;;;;;;23.92;98.25;97199.97;5113583;28;20233;-63
2022/09/14 09:13:55;;;;;;;4.27;3.20;;;;;;;23.90;97.60;97204.72;5117071;28;20321;-62
2022/09/14 09:16:24;;;;;;;4.70;2.83;;;;;;;23.81;96.69;97208.69;5116860;28;20257;-64
2022/09/14 09:18:54;;;;;;;3.27;2.90;;;;;;;23.84;98.87;97208.25;5116718;28;20277;-62
2022/09/14 09:21:25;;;;;;;6.33;3.30;;;;;;;23.82;99.36;97221.13;5115059;28;20230;-62
2022/09/14 09:23:55;;;;;;;5.80;3.20;;;;;;;23.81;96.84;97227.56;5106848;28;20249;-62
2022/09/14 09:26:27;;;;;;;3.90;3.33;;;;;;;23.87;99.67;97232.16;5116601;28;20261;-62
2022/09/14 09:28:57;;;;;;;5.67;3.00;;;;;;;24.02;99.16;97224.63;5115708;28;20275;-62
2022/09/14 09:31:32;;;;;;;4.90;2.70;;;;;;;24.38;92.46;97230.34;5115791;28;20257;-62
2022/09/14 09:33:59;;;;;;;3.73;2.80;;;;;;;24.81;92.66;97228.72;5116360;28;20274;-63
2022/09/14 09:36:27;;;;;;;2.50;2.30;;;;;;;25.03;90.39;97224.63;5114855;28;20265;-62
2022/09/14 09:38:54;;;;;;;6.10;2.70;;;;;;;25.24;90.38;97215.38;5114492;28;20281;-63
2022/09/14 09:41:24;;;;;;;3.20;2.57;;;;;;;25.24;85.46;97215.38;5116500;28;20635;-62
2022/09/14 09:43:59;;;;;;;2.50;2.27;;;;;;;25.42;85.44;97197.31;5116441;28;20222;-63
2022/09/14 09:46:30;;;;;;;4.07;2.50;;;;;;;25.36;86.28;97200.09;5116382;28;20225;-62
2022/09/14 09:48:58;;;;;;;5.30;2.70;;;;;;;25.16;83.99;97196.66;5112936;28;20300;-63
2022/09/14 09:51:30;;;;;;;3.60;2.30;;;;;;;25.02;87.22;97201.34;5116110;28;20675;-63
2022/09/14 09:54:06;;;;;;;3.67;2.50;;;;;;;25.18;88.35;97195.41;5116182;28;20222;-63
2022/09/14 09:56:36;;;;;;;4.37;2.83;;;;;;;25.31;87.23;97181.78;5114304;28;20218;-62
2022/09/14 09:59:03;;;;;;;5.70;2.50;;;;;;;25.32;86.51;97178.06;5087388;28;20245;-62
2022/09/14 10:01:33;;;;;;;3.20;2.47;;;;;;;25.27;85.27;97163.53;5115937;28;20247;-63
2022/09/14 10:04:03;;;;;;;3.23;2.30;;;;;;;25.25;86.86;97158.38;5114367;28;20257;-62
2022/09/14 10:06:30;;;;;;;3.60;2.63;;;;;;;25.28;85.64;97151.66;5113937;28;20291;-63
2022/09/14 10:08:58;;;;;;;3.80;2.20;;;;;;;25.23;84.56;97157.69;5115857;28;20278;-62
2022/09/14 10:11:35;;;;;;;3.50;2.50;;;;;;;25.44;87.36;97151.09;5115825;28;20265;-62
2022/09/14 10:14:03;;;;;;;3.77;2.30;;;;;;;25.66;86.35;97152.34;5115909;28;20297;-62
2022/09/14 10:16:35;;;;;;;3.23;2.33;;;;;;;25.91;82.79;97145.03;5104914;28;20231;-63
2022/09/14 10:19:03;;;;;;;2.80;2.47;;;;;;;26.29;80.28;97146.44;5115583;28;20253;-64
2022/09/14 10:21:31;;;;;;;6.87;2.30;;;;;;;26.50;80.12;97137.81;5115577;28;20236;-63
2022/09/14 10:24:05;;;;;;;3.27;2.20;;;;;;;26.12;75.63;97145.41;5113527;28;20516;-63
2022/09/14 10:26:35;;;;;;;2.80;2.20;;;;;;;25.87;77.94;97141.09;5086286;28;20221;-63
2022/09/14 10:29:28;;;;;;;3.97;2.33;;;;;;;25.96;78.22;97143.28;5113606;28;20593;-64
2022/09/14 10:32:03;;;;;;;4.23;2.50;;;;;;;26.17;78.81;97134.72;5113887;28;20222;-64
2022/09/14 10:34:30;;;;;;;2.50;2.20;;;;;;;26.27;76.81;97136.91;5088039;28;20222;-62
2022/09/14 10:37:10;;;;;;;2.40;2.20;;;;;;;26.43;76.89;97120.81;5115315;28;20264;-64
2022/09/14 10:39:43;;;;;;;5.03;2.50;;;;;;;26.64;75.62;97123.06;5114959;28;20281;-63
2022/09/14 10:42:18;;;;;;;4.53;2.30;;;;;;;26.85;75.87;97108.16;5113599;28;20324;-62
2022/09/14 10:45:09;;;;;;;2.70;2.47;;;;;;;26.98;74.75;97103.34;5115109;28;20221;-62
2022/09/14 10:47:56;;;;;;;3.57;2.20;;;;;;;26.97;74.09;97104.41;5114160;28;20268;-62
2022/09/14 10:50:33;;;;;;;4.50;2.20;;;;;;;26.82;71.53;97106.72;5090218;28;20256;-62
2022/09/14 10:53:10;;;;;;;4.63;2.20;;;;;;;26.78;70.64;97102.00;5115188;28;20289;-62
2022/09/14 10:55:44;;;;;;;3.30;2.00;;;;;;;26.76;70.41;97102.22;5111300;28;20290;-63
2022/09/14 10:58:24;;;;;;;4.63;2.40;;;;;;;26.77;71.73;97095.75;5114936;28;20264;-63
2022/09/14 11:01:02;;;;;;;2.63;2.40;;;;;;;26.88;72.76;97084.09;5114146;28;20252;-62
2022/09/14 11:03:48;;;;;;;2.63;2.17;;;;;;;26.98;73.55;97081.66;5112328;28;20252;-62
2022/09/14 11:06:29;;;;;;;2.93;2.20;;;;;;;26.86;69.99;97067.25;5114869;28;20257;-62
2022/09/14 11:09:01;;;;;;;2.73;2.00;;;;;;;26.56;69.70;97071.88;5114769;28;20515;-62
2022/09/14 11:11:36;;;;;;;2.03;1.90;;;;;;;26.50;70.37;97069.22;5112974;28;20474;-62
2022/09/14 11:14:26;;;;;;;3.13;2.07;;;;;;;26.47;70.37;97064.28;5114544;28;20623;-63
2022/09/14 11:17:09;;;;;;;2.53;2.00;;;;;;;26.55;72.73;97069.41;5114352;28;20268;-62
2022/09/14 11:19:48;;;;;;;2.47;2.07;;;;;;;26.72;70.86;97063.09;5114156;28;20281;-64
2022/09/14 11:22:21;;;;;;;2.67;2.10;;;;;;;27.02;70.72;97063.84;5108577;28;20637;-64
2022/09/14 11:24:53;;;;;;;2.80;1.80;;;;;;;27.19;69.99;97062.09;5110498;28;20243;-63
2022/09/14 11:27:26;;;;;;;2.20;1.93;;;;;;;27.25;68.91;97058.44;5111992;28;20276;-62
2022/09/14 11:29:57;;;;;;;3.53;1.80;;;;;;;27.26;68.67;97048.44;5114334;28;20249;-63
2022/09/14 11:32:31;;;;;;;2.60;2.00;;;;;;;27.13;67.72;97052.16;5108466;28;20314;-63
2022/09/14 11:35:03;;;;;;;3.83;1.97;;;;;;;27.08;68.59;97052.88;5112423;28;20253;-64
2022/09/14 11:37:37;;;;;;;2.20;1.90;;;;;;;27.04;70.21;97051.69;5114175;28;20225;-63
2022/09/14 11:40:14;;;;;;;3.63;2.20;;;;;;;27.00;71.65;97052.41;5114196;28;20280;-64